Time;durP1;ratioP1;P1;durP2;ratioP2;P2;SDS_P1;SDS_P2;PMS_P1;PMS_P2;Temp;Humidity;BMP_temperature;BMP_pressure;BME280_temperature;BME280_humidity;BME280_pressure;Samples;Min_cycle;Max_cycle;Signal;HPM_P1;HPM_P2
2023/05/02 00:00:30;;;;;;;3.45;2.80;;;10.90;99.90;;;;;;5014602;28;20060;-70
2023/05/02 00:02:56;;;;;;;4.05;3.15;;;10.90;99.90;;;;;;4996691;28;20124;-71
2023/05/02 00:05:23;;;;;;;3.70;3.10;;;10.80;99.90;;;;;;5013988;28;20426;-71
2023/05/02 00:07:50;;;;;;;3.72;3.05;;;10.80;99.90;;;;;;4996736;28;20030;-70
2023/05/02 00:10:16;;;;;;;4.00;3.58;;;10.70;99.90;;;;;;5014148;28;20058;-71
2023/05/02 00:12:41;;;;;;;3.83;3.42;;;10.70;99.90;;;;;;5013816;28;20503;-71
2023/05/02 00:15:08;;;;;;;4.55;3.33;;;10.70;99.90;;;;;;4996457;28;20122;-71
2023/05/02 00:17:33;;;;;;;6.28;3.40;;;10.60;99.90;;;;;;5014023;28;20062;-70
2023/05/02 00:19:59;;;;;;;6.72;3.20;;;10.60;99.90;;;;;;5013765;28;20111;-70
2023/05/02 00:22:24;;;;;;;6.45;4.28;;;10.50;99.90;;;;;;4996108;28;20137;-70
2023/05/02 00:24:56;;;;;;;3.85;3.28;;;10.50;99.90;;;;;;5013985;28;20029;-71
2023/05/02 00:27:22;;;;;;;4.00;3.42;;;10.40;99.90;;;;;;4998899;28;20532;-71
2023/05/02 00:29:47;;;;;;;4.93;3.63;;;10.40;99.90;;;;;;5017938;28;20022;-71
2023/05/02 00:32:13;;;;;;;5.05;3.50;;;10.40;99.90;;;;;;5017960;28;20093;-70
2023/05/02 00:34:39;;;;;;;4.47;3.38;;;10.30;99.90;;;;;;5017900;28;20034;-70
2023/05/02 00:37:06;;;;;;;6.47;3.20;;;10.30;99.90;;;;;;5000230;28;20030;-71
2023/05/02 00:39:33;;;;;;;5.18;3.50;;;10.20;99.90;;;;;;5000238;28;20508;-71
2023/05/02 00:42:00;;;;;;;4.20;3.67;;;10.20;99.90;;;;;;5017964;28;20021;-70
2023/05/02 00:44:26;;;;;;;7.32;3.80;;;10.10;99.90;;;;;;5000433;28;20068;-70
2023/05/02 00:46:53;;;;;;;6.43;3.95;;;10.10;99.90;;;;;;5017812;28;20049;-71
2023/05/02 00:49:18;;;;;;;6.18;3.83;;;10.10;99.90;;;;;;5017687;28;20029;-70
2023/05/02 00:51:45;;;;;;;6.13;3.47;;;10.20;99.90;;;;;;5017661;28;20105;-70
2023/05/02 00:54:12;;;;;;;5.60;4.07;;;10.20;99.90;;;;;;4999963;28;20033;-71
2023/05/02 00:56:37;;;;;;;4.50;3.90;;;10.30;99.90;;;;;;5017570;28;20030;-71
2023/05/02 00:59:04;;;;;;;7.05;4.10;;;10.30;99.90;;;;;;4999886;28;20501;-70
2023/05/02 01:01:46;;;;;;;5.57;4.10;;;10.30;99.90;;;;;;4999801;28;20065;-70
2023/05/02 01:04:18;;;;;;;6.60;4.30;;;10.30;99.90;;;;;;5000390;28;20370;-70
2023/05/02 01:07:05;;;;;;;6.47;3.80;;;10.40;99.90;;;;;;4999640;28;20474;-70
2023/05/02 01:09:43;;;;;;;4.72;3.90;;;10.40;99.90;;;;;;5017362;28;20037;-70
2023/05/02 01:12:32;;;;;;;5.78;4.47;;;10.30;99.90;;;;;;5017247;28;20021;-70
2023/05/02 01:15:03;;;;;;;5.10;4.05;;;10.30;99.90;;;;;;5017618;28;20033;-70
2023/05/02 01:17:31;;;;;;;8.50;5.05;;;10.30;99.90;;;;;;5017907;28;20038;-71
2023/05/02 01:20:01;;;;;;;8.27;5.95;;;10.40;99.90;;;;;;5000139;28;20410;-70
2023/05/02 01:22:31;;;;;;;8.88;6.25;;;10.50;99.90;;;;;;4999123;28;20030;-71
2023/05/02 01:25:23;;;;;;;9.90;6.55;;;10.60;99.90;;;;;;5016996;28;20355;-70
2023/05/02 01:28:00;;;;;;;8.95;7.60;;;10.80;99.90;;;;;;4999512;28;20207;-71
2023/05/02 01:30:29;;;;;;;13.05;7.95;;;11.00;99.90;;;;;;5017037;28;20026;-71
2023/05/02 01:32:57;;;;;;;12.32;8.68;;;11.20;99.90;;;;;;4999270;28;20462;-70
2023/05/02 01:35:25;;;;;;;10.18;8.40;;;11.40;99.90;;;;;;4999259;28;20145;-71
2023/05/02 01:37:53;;;;;;;8.77;7.63;;;11.60;99.90;;;;;;4997939;28;20521;-70
2023/05/02 01:40:21;;;;;;;12.05;8.80;;;11.70;99.90;;;;;;5016915;28;20065;-71
2023/05/02 01:42:49;;;;;;;12.55;8.13;;;11.90;99.90;;;;;;5016756;28;20026;-71
2023/05/02 01:45:16;;;;;;;10.07;8.00;;;12.00;99.90;;;;;;5016233;28;20125;-70
2023/05/02 01:47:43;;;;;;;11.48;7.90;;;12.10;99.90;;;;;;4999521;28;20073;-70
2023/05/02 01:50:12;;;;;;;10.75;7.60;;;12.30;99.90;;;;;;5016382;28;20135;-71
2023/05/02 01:52:38;;;;;;;;;;;12.40;99.90;;;;;;4999243;28;20026;-70
2023/05/02 01:55:08;;;;;;;8.50;6.57;;;12.40;99.90;;;;;;4998850;28;19996;-70
2023/05/02 01:57:38;;;;;;;8.27;7.22;;;12.50;99.90;;;;;;4998786;28;20171;-70
2023/05/02 02:00:05;;;;;;;8.07;6.75;;;12.60;99.90;;;;;;5016283;28;20072;-70
2023/05/02 02:02:33;;;;;;;7.47;6.30;;;12.60;99.90;;;;;;5016263;28;20034;-70
2023/05/02 02:05:01;;;;;;;7.28;6.43;;;12.60;99.90;;;;;;5016326;28;20462;-70
2023/05/02 02:07:27;;;;;;;7.43;6.43;;;12.70;99.90;;;;;;5015802;28;20470;-71
2023/05/02 02:09:53;;;;;;;7.80;6.60;;;12.70;99.90;;;;;;5016389;28;20105;-71
2023/05/02 02:12:27;;;;;;;7.32;6.57;;;12.70;99.90;;;;;;4998518;28;20037;-71
2023/05/02 02:15:01;;;;;;;7.90;6.07;;;12.70;99.90;;;;;;5016368;28;20065;-71
2023/05/02 02:17:36;;;;;;;7.40;6.20;;;12.70;99.90;;;;;;5016084;28;20058;-72
2023/05/02 02:20:06;;;;;;;9.05;6.30;;;12.80;99.90;;;;;;5015996;28;20022;-71
2023/05/02 02:22:36;;;;;;;8.20;6.68;;;12.80;99.90;;;;;;5015877;28;20050;-71
2023/05/02 02:25:05;;;;;;;6.38;5.78;;;12.80;99.90;;;;;;5015811;28;20025;-71
2023/05/02 02:27:31;;;;;;;7.35;5.70;;;12.80;99.90;;;;;;5015758;28;20030;-71
2023/05/02 02:29:56;;;;;;;7.63;6.03;;;12.80;99.90;;;;;;5015526;28;20533;-72
2023/05/02 02:32:23;;;;;;;7.80;5.90;;;12.80;99.90;;;;;;5015436;28;20026;-71
2023/05/02 02:34:49;;;;;;;7.28;5.72;;;12.80;99.90;;;;;;5015624;28;20030;-71
2023/05/02 02:37:21;;;;;;;7.63;5.93;;;12.80;99.90;;;;;;5015683;28;20386;-71
2023/05/02 02:40:27;;;;;;;11.75;6.80;;;12.80;99.90;;;;;;5015785;28;20373;-71
2023/05/02 02:43:22;;;;;;;7.93;6.55;;;12.80;99.90;;;;;;4998074;28;20527;-71
2023/05/02 02:46:08;;;;;;;9.30;7.55;;;12.80;99.90;;;;;;5015424;28;20129;-71
2023/05/02 02:48:42;;;;;;;8.27;6.75;;;12.80;99.90;;;;;;5015674;28;20450;-71
2023/05/02 02:51:18;;;;;;;8.77;7.07;;;12.80;99.90;;;;;;4997844;28;20033;-71
2023/05/02 02:54:12;;;;;;;8.45;7.18;;;12.80;99.90;;;;;;4997799;28;20052;-71
2023/05/02 02:56:44;;;;;;;7.55;6.72;;;12.80;99.90;;;;;;5015497;28;20117;-72
2023/05/02 02:59:10;;;;;;;8.02;6.43;;;12.80;99.90;;;;;;5015227;28;20064;-71
2023/05/02 03:01:40;;;;;;;8.95;7.07;;;12.80;99.90;;;;;;5015461;28;20034;-71
2023/05/02 03:04:08;;;;;;;8.82;7.25;;;12.80;99.90;;;;;;5014954;28;20489;-71
2023/05/02 03:06:34;;;;;;;10.25;7.60;;;12.80;99.90;;;;;;5015444;28;20038;-72
2023/05/02 03:09:00;;;;;;;8.82;7.20;;;12.80;99.90;;;;;;5015025;28;20029;-71
2023/05/02 03:11:26;;;;;;;10.93;6.82;;;12.80;99.90;;;;;;4997427;28;20137;-71
2023/05/02 03:13:52;;;;;;;10.52;7.50;;;12.80;99.90;;;;;;5014733;28;20036;-71
2023/05/02 03:16:38;;;;;;;9.00;7.22;;;12.80;99.90;;;;;;5014657;28;20108;-72
2023/05/02 03:19:04;;;;;;;9.18;7.05;;;12.70;99.90;;;;;;4998081;28;20045;-71
2023/05/02 03:21:30;;;;;;;8.20;6.75;;;12.70;99.90;;;;;;5014834;28;20025;-71
2023/05/02 03:24:05;;;;;;;8.45;7.38;;;12.70;99.90;;;;;;5014908;28;20033;-71
2023/05/02 03:26:31;;;;;;;10.68;7.82;;;12.70;99.90;;;;;;5014906;28;20038;-71
2023/05/02 03:28:56;;;;;;;11.00;7.80;;;12.70;99.90;;;;;;5014721;28;20355;-71
2023/05/02 03:31:22;;;;;;;8.20;7.28;;;12.70;99.90;;;;;;4996979;28;20064;-72
2023/05/02 03:33:48;;;;;;;9.25;8.00;;;12.70;99.90;;;;;;4996981;28;20022;-71
2023/05/02 03:36:15;;;;;;;11.73;8.25;;;12.70;99.90;;;;;;4997297;28;20037;-72
2023/05/02 03:38:40;;;;;;;9.23;8.23;;;12.70;99.90;;;;;;4997332;28;20492;-72
2023/05/02 03:41:06;;;;;;;10.63;7.50;;;12.70;99.90;;;;;;5014936;28;20029;-72
2023/05/02 03:43:32;;;;;;;11.48;8.35;;;12.70;99.90;;;;;;4997556;28;20026;-72
2023/05/02 03:46:07;;;;;;;9.43;7.78;;;12.70;99.90;;;;;;5014716;28;20053;-71
2023/05/02 03:48:33;;;;;;;9.82;8.25;;;12.70;99.90;;;;;;4996868;28;20117;-72
2023/05/02 03:50:59;;;;;;;10.95;7.93;;;12.70;99.90;;;;;;5014392;28;20030;-71
2023/05/02 03:53:25;;;;;;;10.40;8.00;;;12.60;99.90;;;;;;5014742;28;20135;-72
2023/05/02 03:55:51;;;;;;;10.75;7.63;;;12.60;99.90;;;;;;4998499;28;20029;-72
2023/05/02 03:58:17;;;;;;;10.27;8.93;;;12.60;99.90;;;;;;5015715;28;20054;-73
2023/05/02 04:00:42;;;;;;;16.65;9.48;;;12.60;99.90;;;;;;5015516;28;20029;-72
2023/05/02 04:03:08;;;;;;;11.65;8.20;;;12.60;99.90;;;;;;4998118;28;20026;-72
2023/05/02 04:05:33;;;;;;;13.20;8.38;;;12.60;99.90;;;;;;4997665;28;20044;-72
2023/05/02 04:08:01;;;;;;;11.98;8.82;;;12.50;99.90;;;;;;4996845;28;20026;-72
2023/05/02 04:10:27;;;;;;;10.80;8.27;;;12.60;99.90;;;;;;4996842;28;20045;-71
2023/05/02 04:12:52;;;;;;;14.48;8.88;;;12.60;99.90;;;;;;4996951;28;20030;-72
2023/05/02 04:15:18;;;;;;;10.05;7.80;;;12.60;99.90;;;;;;4996204;28;20030;-71
2023/05/02 04:17:45;;;;;;;10.20;8.63;;;12.70;99.90;;;;;;5014236;28;20030;-71
2023/05/02 04:20:11;;;;;;;10.60;8.68;;;12.70;99.90;;;;;;5013972;28;20025;-71
2023/05/02 04:22:38;;;;;;;11.80;8.90;;;12.70;99.90;;;;;;5013789;28;20026;-71
2023/05/02 04:25:07;;;;;;;9.60;8.05;;;12.80;99.90;;;;;;4996365;28;20459;-72
2023/05/02 04:27:33;;;;;;;9.10;7.15;;;12.80;99.90;;;;;;5013948;28;20038;-71
2023/05/02 04:29:58;;;;;;;10.52;8.57;;;12.90;99.90;;;;;;5014168;28;20030;-71
2023/05/02 04:32:24;;;;;;;11.52;7.45;;;12.90;99.90;;;;;;5014250;28;20101;-71
2023/05/02 04:34:50;;;;;;;9.25;7.40;;;13.00;99.90;;;;;;4996221;28;20103;-71
2023/05/02 04:37:15;;;;;;;9.82;8.07;;;13.00;99.90;;;;;;5013845;28;20117;-71
2023/05/02 04:39:41;;;;;;;10.00;8.27;;;13.00;99.90;;;;;;5013612;28;20080;-71
2023/05/02 04:42:07;;;;;;;10.00;8.32;;;13.00;99.90;;;;;;4996367;28;20033;-72
2023/05/02 04:44:33;;;;;;;12.38;8.90;;;13.00;99.90;;;;;;5013932;28;20416;-72
2023/05/02 04:46:58;;;;;;;10.02;7.82;;;13.10;99.90;;;;;;5014015;28;20050;-72
2023/05/02 04:49:24;;;;;;;9.90;8.10;;;13.10;99.90;;;;;;4996221;28;20080;-71
2023/05/02 04:51:51;;;;;;;8.98;8.07;;;13.10;99.90;;;;;;5014020;28;20034;-71
2023/05/02 04:54:17;;;;;;;9.95;7.95;;;13.10;99.90;;;;;;5013847;28;20029;-71
2023/05/02 04:56:42;;;;;;;10.25;8.50;;;13.10;99.90;;;;;;5013735;28;20109;-72
2023/05/02 04:59:08;;;;;;;12.95;8.18;;;13.20;99.90;;;;;;4996259;28;20037;-72
2023/05/02 05:01:34;;;;;;;13.23;8.20;;;13.20;99.90;;;;;;5013655;28;20029;-72
2023/05/02 05:04:00;;;;;;;11.35;8.50;;;13.20;99.90;;;;;;5013595;28;20160;-72
2023/05/02 05:06:25;;;;;;;9.40;8.25;;;13.30;99.90;;;;;;5013770;28;20030;-71
2023/05/02 05:08:51;;;;;;;14.35;9.27;;;13.30;99.90;;;;;;4996130;28;20037;-72
2023/05/02 05:11:16;;;;;;;10.48;8.98;;;13.40;99.90;;;;;;5013558;28;20026;-71
2023/05/02 05:13:42;;;;;;;10.85;8.98;;;13.40;99.90;;;;;;4998872;28;20026;-71
2023/05/02 05:16:08;;;;;;;12.38;9.55;;;13.50;99.90;;;;;;4999568;28;20084;-72
2023/05/02 05:18:39;;;;;;;12.45;10.00;;;13.50;99.90;;;;;;5017325;28;20026;-72
2023/05/02 05:21:08;;;;;;;12.15;9.45;;;13.50;99.90;;;;;;4999449;28;20123;-72
2023/05/02 05:23:35;;;;;;;12.07;9.98;;;13.60;99.90;;;;;;4999091;28;20033;-72
2023/05/02 05:26:15;;;;;;;11.95;9.40;;;13.60;99.90;;;;;;4999215;28;20084;-72
2023/05/02 05:28:42;;;;;;;12.35;9.98;;;13.60;99.90;;;;;;5017227;28;20529;-72
2023/05/02 05:31:09;;;;;;;16.90;10.45;;;13.60;99.90;;;;;;5016996;28;20030;-71
2023/05/02 05:33:35;;;;;;;13.95;10.50;;;13.60;99.90;;;;;;5017112;28;20026;-72
2023/05/02 05:36:13;;;;;;;13.40;10.23;;;13.70;99.90;;;;;;5016791;28;20034;-72
2023/05/02 05:38:39;;;;;;;12.02;9.77;;;13.70;99.90;;;;;;4999529;28;20454;-72
2023/05/02 05:41:05;;;;;;;13.27;9.90;;;13.70;99.90;;;;;;5016425;28;20034;-71
2023/05/02 05:43:31;;;;;;;11.88;9.00;;;13.80;99.90;;;;;;4998779;28;20053;-72
2023/05/02 05:45:56;;;;;;;12.63;10.32;;;13.80;99.90;;;;;;5016841;28;20046;-72
2023/05/02 05:48:23;;;;;;;11.95;9.88;;;13.80;99.90;;;;;;5016870;28;20482;-72
2023/05/02 05:50:50;;;;;;;11.43;9.73;;;13.90;99.90;;;;;;5016248;28;20065;-72
2023/05/02 05:53:17;;;;;;;11.70;9.48;;;13.90;99.90;;;;;;5016571;28;20030;-71
2023/05/02 05:55:42;;;;;;;10.68;8.88;;;14.00;99.90;;;;;;4998810;28;20382;-72
2023/05/02 05:58:08;;;;;;;11.07;9.80;;;14.00;99.90;;;;;;5016623;28;20029;-71
2023/05/02 06:00:34;;;;;;;10.73;9.63;;;14.00;99.90;;;;;;5016077;28;20026;-72
2023/05/02 06:03:00;;;;;;;11.05;9.10;;;14.10;99.90;;;;;;5016254;28;20030;-71
2023/05/02 06:05:26;;;;;;;13.93;9.48;;;14.10;99.90;;;;;;5015798;28;20041;-72
2023/05/02 06:07:52;;;;;;;10.52;9.25;;;14.20;99.90;;;;;;5016288;28;20034;-71
2023/05/02 06:10:18;;;;;;;11.32;9.13;;;14.20;99.90;;;;;;5016120;28;20429;-72
2023/05/02 06:12:43;;;;;;;13.43;10.10;;;14.30;99.90;;;;;;5016724;28;20025;-72
2023/05/02 06:15:09;;;;;;;12.77;9.77;;;14.30;99.90;;;;;;5016341;28;20030;-72
2023/05/02 06:17:35;;;;;;;12.32;10.18;;;14.40;99.90;;;;;;5015977;28;20072;-72
2023/05/02 06:20:00;;;;;;;13.57;11.20;;;14.40;99.90;;;;;;4998024;28;20030;-72
2023/05/02 06:22:26;;;;;;;11.75;10.32;;;14.50;99.90;;;;;;4992646;28;20150;-72
2023/05/02 06:24:52;;;;;;;11.43;9.80;;;14.50;99.90;;;;;;5003609;28;20026;-71
2023/05/02 06:27:17;;;;;;;11.30;9.85;;;14.50;99.90;;;;;;4984831;28;20124;-72
2023/05/02 06:29:43;;;;;;;13.35;9.43;;;14.60;99.90;;;;;;5000966;28;20030;-72
2023/05/02 06:32:09;;;;;;;13.07;9.48;;;14.70;99.90;;;;;;5001185;28;20055;-72
2023/05/02 06:34:35;;;;;;;10.10;9.00;;;14.70;99.90;;;;;;5001175;28;20389;-72
2023/05/02 06:37:00;;;;;;;12.77;9.45;;;14.80;99.90;;;;;;5000442;28;20033;-72
2023/05/02 06:39:26;;;;;;;10.85;9.75;;;14.80;99.90;;;;;;4999955;28;20046;-72
2023/05/02 06:42:01;;;;;;;9.85;8.57;;;14.80;99.90;;;;;;5001321;28;20045;-72
2023/05/02 06:44:26;;;;;;;9.50;8.18;;;14.80;99.90;;;;;;4983738;28;20354;-71
2023/05/02 06:46:52;;;;;;;9.93;8.68;;;14.80;99.90;;;;;;5001981;28;20157;-72
2023/05/02 06:49:18;;;;;;;13.57;8.77;;;14.90;99.90;;;;;;5001963;28;20026;-72
2023/05/02 06:51:43;;;;;;;10.57;8.35;;;14.90;99.90;;;;;;4984696;28;20096;-72
2023/05/02 06:54:10;;;;;;;9.32;8.40;;;15.00;99.90;;;;;;5001183;28;20026;-72
2023/05/02 06:56:35;;;;;;;10.75;8.85;;;15.00;99.90;;;;;;5002738;28;20037;-72
2023/05/02 06:59:01;;;;;;;8.98;8.10;;;15.00;99.90;;;;;;5001975;28;20038;-72
2023/05/02 07:01:27;;;;;;;12.02;8.10;;;15.00;99.90;;;;;;5001361;28;20421;-72
2023/05/02 07:03:53;;;;;;;11.48;8.25;;;15.10;99.90;;;;;;4992082;28;20164;-72
2023/05/02 07:06:19;;;;;;;8.88;7.97;;;15.20;99.90;;;;;;5002555;28;20129;-72
2023/05/02 07:08:45;;;;;;;10.55;7.55;;;15.20;99.90;;;;;;5002028;28;20092;-72
2023/05/02 07:11:10;;;;;;;9.20;8.20;;;15.20;99.90;;;;;;4984453;28;20402;-72
2023/05/02 07:13:39;;;;;;;11.68;8.23;;;15.10;99.90;;;;;;5002369;28;20034;-72
2023/05/02 07:16:06;;;;;;;9.23;8.32;;;15.10;99.90;;;;;;5002630;28;20045;-72
2023/05/02 07:18:31;;;;;;;9.38;7.47;;;15.10;99.90;;;;;;5001954;28;20038;-72
2023/05/02 07:20:57;;;;;;;9.25;7.85;;;15.10;99.90;;;;;;5002203;28;20026;-72
2023/05/02 07:23:23;;;;;;;9.63;8.25;;;15.20;99.90;;;;;;5001869;28;20485;-72
2023/05/02 07:25:49;;;;;;;8.52;7.60;;;15.30;99.90;;;;;;4984365;28;20463;-72
2023/05/02 07:28:15;;;;;;;8.57;7.45;;;15.00;99.90;;;;;;5002247;28;20021;-72
2023/05/02 07:30:40;;;;;;;10.85;7.40;;;15.50;99.90;;;;;;4984325;28;20038;-72
2023/05/02 07:33:06;;;;;;;8.52;7.63;;;15.40;99.90;;;;;;4984036;28;20165;-72
2023/05/02 07:35:32;;;;;;;11.35;7.53;;;15.40;99.90;;;;;;5001571;28;20034;-72
2023/05/02 07:37:57;;;;;;;8.13;6.88;;;15.30;99.90;;;;;;5001898;28;20057;-72
2023/05/02 07:40:27;;;;;;;8.65;7.55;;;15.20;99.90;;;;;;4984615;28;20500;-72
2023/05/02 07:42:56;;;;;;;7.57;6.85;;;15.20;99.90;;;;;;4984183;28;20026;-72
2023/05/02 07:45:22;;;;;;;8.00;7.03;;;15.20;99.90;;;;;;4982521;28;20053;-72
2023/05/02 07:47:48;;;;;;;8.02;6.90;;;15.20;99.90;;;;;;5012506;28;20030;-72
2023/05/02 07:50:13;;;;;;;8.50;6.65;;;15.10;99.90;;;;;;5000210;28;20030;-72
2023/05/02 07:52:39;;;;;;;6.07;5.50;;;15.20;99.90;;;;;;5001930;28;20054;-71
2023/05/02 07:55:05;;;;;;;6.28;5.05;;;15.20;99.90;;;;;;5001540;28;20045;-72
2023/05/02 07:57:31;;;;;;;5.60;5.10;;;15.20;99.90;;;;;;5001676;28;20034;-71
2023/05/02 07:59:56;;;;;;;4.97;4.47;;;15.30;99.90;;;;;;4986862;28;20025;-72
2023/05/02 08:02:22;;;;;;;5.97;4.63;;;15.50;99.90;;;;;;4986973;28;20502;-65
2023/05/02 08:04:48;;;;;;;4.95;4.45;;;15.60;99.90;;;;;;5002706;28;20041;-76
2023/05/02 08:07:14;;;;;;;6.72;4.45;;;15.50;99.90;;;;;;5003608;28;20065;-76
2023/05/02 08:09:40;;;;;;;4.40;4.00;;;14.90;99.90;;;;;;5002733;28;20076;-76
2023/05/02 08:12:06;;;;;;;6.05;4.40;;;15.70;99.90;;;;;;4985889;28;20037;-71
2023/05/02 08:14:32;;;;;;;5.45;4.57;;;15.70;99.90;;;;;;5003281;28;20045;-71
2023/05/02 08:16:58;;;;;;;5.53;4.70;;;15.70;99.90;;;;;;5002781;28;20036;-71
2023/05/02 08:19:24;;;;;;;5.43;4.93;;;15.70;99.90;;;;;;4984717;28;20034;-71
2023/05/02 08:21:50;;;;;;;6.72;4.75;;;15.60;99.90;;;;;;4984470;28;20065;-71
2023/05/02 08:24:15;;;;;;;4.40;4.00;;;15.70;99.90;;;;;;5001600;28;20030;-71
2023/05/02 08:26:41;;;;;;;7.07;4.38;;;15.80;99.90;;;;;;5002444;28;20379;-68
2023/05/02 08:29:07;;;;;;;4.20;3.70;;;15.90;99.90;;;;;;5002542;28;20038;-73
2023/05/02 08:31:32;;;;;;;4.47;4.07;;;16.00;99.90;;;;;;5002986;28;20038;-68
2023/05/02 08:33:58;;;;;;;10.20;4.60;;;16.10;99.90;;;;;;5002932;28;20037;-72
2023/05/02 08:36:24;;;;;;;5.15;4.38;;;16.10;99.90;;;;;;5002776;28;20121;-68
2023/05/02 08:38:49;;;;;;;5.25;4.47;;;16.20;99.90;;;;;;5003272;28;20156;-66
2023/05/02 08:41:19;;;;;;;5.43;4.65;;;16.30;99.90;;;;;;5003710;28;20029;-66
2023/05/02 08:43:45;;;;;;;5.78;5.13;;;16.50;99.90;;;;;;5002743;28;20029;-69
2023/05/02 08:46:12;;;;;;;6.38;5.28;;;16.50;99.90;;;;;;4983852;28;20050;-67
2023/05/02 08:48:43;;;;;;;5.60;5.03;;;16.50;99.90;;;;;;5005138;28;20041;-69
2023/05/02 08:51:14;;;;;;;5.10;4.60;;;16.30;99.90;;;;;;5005975;28;20065;-67
2023/05/02 08:53:41;;;;;;;5.47;4.97;;;16.30;99.90;;;;;;5008056;28;20040;-67
2023/05/02 08:56:07;;;;;;;5.20;4.70;;;16.20;99.90;;;;;;4999173;28;20030;-66
2023/05/02 08:58:37;;;;;;;5.80;4.97;;;16.20;99.90;;;;;;5017565;28;20029;-66
2023/05/02 09:01:15;;;;;;;5.93;4.90;;;16.10;99.90;;;;;;5017435;28;20029;-65
2023/05/02 09:03:43;;;;;;;6.95;5.32;;;16.00;99.90;;;;;;5017723;28;20456;-66
2023/05/02 09:06:16;;;;;;;6.35;4.93;;;16.00;99.90;;;;;;4999648;28;20056;-66
2023/05/02 09:08:44;;;;;;;5.50;4.63;;;16.00;99.90;;;;;;5017268;28;20030;-66
2023/05/02 09:11:11;;;;;;;4.73;3.87;;;16.00;99.90;;;;;;5017285;28;20040;-66
2023/05/02 09:13:42;;;;;;;5.25;4.75;;;15.90;99.90;;;;;;5017481;28;20257;-66
2023/05/02 09:16:16;;;;;;;8.10;4.63;;;15.90;99.90;;;;;;5017159;28;20025;-66
2023/05/02 09:18:46;;;;;;;5.82;4.28;;;16.00;99.90;;;;;;5017347;28;20022;-66
2023/05/02 09:21:34;;;;;;;5.15;4.22;;;16.00;99.90;;;;;;5017033;28;20026;-66
2023/05/02 09:24:02;;;;;;;6.60;4.53;;;16.00;99.90;;;;;;4999883;28;20040;-66
2023/05/02 09:26:31;;;;;;;9.63;4.05;;;16.00;99.90;;;;;;5016625;28;20672;-66
2023/05/02 09:28:58;;;;;;;6.03;4.70;;;16.00;99.90;;;;;;5016976;28;20108;-66
2023/05/02 09:31:29;;;;;;;4.93;4.00;;;16.10;99.90;;;;;;4999279;28;20026;-67
2023/05/02 09:33:55;;;;;;;6.75;4.50;;;16.20;99.90;;;;;;5016924;28;20101;-66
2023/05/02 09:36:21;;;;;;;5.65;4.70;;;16.40;99.90;;;;;;5016768;28;20022;-66
2023/05/02 09:38:49;;;;;;;7.38;5.55;;;16.50;99.90;;;;;;5016434;28;20144;-67
2023/05/02 09:41:20;;;;;;;6.43;5.68;;;16.50;99.90;;;;;;5016726;28;20018;-66
2023/05/02 09:43:56;;;;;;;7.68;5.72;;;16.50;99.90;;;;;;5016776;28;20026;-66
2023/05/02 09:46:21;;;;;;;6.25;5.57;;;16.50;99.90;;;;;;5016133;28;20132;-66
2023/05/02 09:48:51;;;;;;;5.93;5.13;;;16.60;99.90;;;;;;5016740;28;20072;-66
2023/05/02 09:51:18;;;;;;;7.35;5.30;;;16.70;99.90;;;;;;4999161;28;20022;-66
2023/05/02 09:53:44;;;;;;;5.70;5.13;;;17.00;99.90;;;;;;5016273;28;20022;-66
2023/05/02 09:56:10;;;;;;;7.85;6.45;;;17.10;99.90;;;;;;5016483;28;20493;-67
2023/05/02 09:58:35;;;;;;;6.10;5.50;;;17.00;99.90;;;;;;4998190;28;20022;-66
2023/05/02 10:01:01;;;;;;;5.72;5.13;;;16.80;99.90;;;;;;5015972;28;20032;-67
2023/05/02 10:03:28;;;;;;;6.18;5.57;;;16.70;99.90;;;;;;5016548;28;20022;-67
2023/05/02 10:05:55;;;;;;;9.27;6.05;;;16.50;99.90;;;;;;5016657;28;20144;-66
2023/05/02 10:08:23;;;;;;;7.35;6.65;;;16.40;99.90;;;;;;4998860;28;20025;-66
2023/05/02 10:10:55;;;;;;;7.10;6.38;;;16.30;99.90;;;;;;5016161;28;20025;-67
2023/05/02 10:13:23;;;;;;;7.03;6.18;;;16.40;99.90;;;;;;5016514;28;20029;-67
2023/05/02 10:16:10;;;;;;;7.78;5.80;;;16.60;99.90;;;;;;5016108;28;20037;-67
2023/05/02 10:18:39;;;;;;;7.60;6.25;;;16.90;99.90;;;;;;5015680;28;20026;-67
2023/05/02 10:21:07;;;;;;;9.45;6.25;;;16.90;99.90;;;;;;5015972;28;20496;-67
2023/05/02 10:23:34;;;;;;;10.93;6.38;;;16.90;99.90;;;;;;4998289;28;20030;-67
2023/05/02 10:26:00;;;;;;;8.02;6.50;;;16.80;99.90;;;;;;5015518;28;20462;-67
2023/05/02 10:28:26;;;;;;;8.45;6.82;;;16.70;99.90;;;;;;5015795;28;20045;-67
2023/05/02 10:30:53;;;;;;;13.05;7.55;;;16.50;99.90;;;;;;4991949;28;20472;-67
2023/05/02 10:33:21;;;;;;;7.53;6.80;;;16.30;99.90;;;;;;4988311;28;20057;-72
2023/05/02 10:35:47;;;;;;;8.43;7.20;;;16.20;99.90;;;;;;5005588;28;20030;-67
2023/05/02 10:38:19;;;;;;;7.40;6.45;;;16.00;99.90;;;;;;5006211;28;20025;-67
2023/05/02 10:40:59;;;;;;;8.60;7.03;;;16.00;99.90;;;;;;4987500;28;20549;-67
2023/05/02 10:43:31;;;;;;;8.00;7.20;;;16.00;99.90;;;;;;5005920;28;20113;-67
2023/05/02 10:45:57;;;;;;;8.55;7.65;;;15.90;99.90;;;;;;5004615;28;20054;-67
2023/05/02 10:48:24;;;;;;;9.52;7.28;;;15.90;99.90;;;;;;5005510;28;20116;-67
2023/05/02 10:50:52;;;;;;;9.80;7.03;;;15.90;99.90;;;;;;5010792;28;20022;-66
2023/05/02 10:53:26;;;;;;;8.45;7.07;;;15.90;99.90;;;;;;4992900;28;20057;-66
2023/05/02 10:56:15;;;;;;;8.63;7.47;;;15.80;99.90;;;;;;5015154;28;20129;-66
2023/05/02 10:58:45;;;;;;;8.60;7.22;;;15.60;99.90;;;;;;4997662;28;20034;-67
2023/05/02 11:01:29;;;;;;;8.30;7.30;;;15.50;99.90;;;;;;5015269;28;20033;-66
2023/05/02 11:04:08;;;;;;;8.40;7.32;;;15.40;99.90;;;;;;5015352;28;20167;-66
2023/05/02 11:06:36;;;;;;;7.72;6.93;;;15.50;99.90;;;;;;5015148;28;20038;-66
2023/05/02 11:09:19;;;;;;;8.45;7.55;;;15.60;99.90;;;;;;5014995;28;20115;-66
2023/05/02 11:11:45;;;;;;;8.25;7.45;;;15.70;99.90;;;;;;4997892;28;20044;-67
2023/05/02 11:14:37;;;;;;;8.20;7.32;;;15.70;99.90;;;;;;5015140;28;20109;-66
2023/05/02 11:17:05;;;;;;;10.98;8.55;;;15.70;99.90;;;;;;4997027;28;20033;-68
2023/05/02 11:19:36;;;;;;;9.45;7.75;;;15.80;99.90;;;;;;5014718;28;20446;-68
2023/05/02 11:22:22;;;;;;;7.88;7.07;;;15.80;99.90;;;;;;4997083;28;20116;-68
2023/05/02 11:24:49;;;;;;;11.15;7.20;;;15.80;99.90;;;;;;5014818;28;20056;-69
2023/05/02 11:27:36;;;;;;;9.30;7.40;;;15.90;99.90;;;;;;4997264;28;20030;-70
2023/05/02 11:30:06;;;;;;;8.93;7.07;;;16.20;99.90;;;;;;4997808;28;20446;-70
2023/05/02 11:32:44;;;;;;;9.50;7.10;;;16.30;99.90;;;;;;5014578;28;20446;-70
2023/05/02 11:35:17;;;;;;;10.40;7.35;;;16.50;99.90;;;;;;5014559;28;20026;-70
2023/05/02 11:37:52;;;;;;;7.65;6.82;;;16.50;99.90;;;;;;4997138;28;20057;-70
2023/05/02 11:40:18;;;;;;;8.75;6.95;;;16.40;99.90;;;;;;5014502;28;20060;-69
2023/05/02 11:42:44;;;;;;;9.77;7.30;;;16.30;99.90;;;;;;5014336;28;20049;-70
2023/05/02 11:45:10;;;;;;;8.13;6.82;;;16.20;99.90;;;;;;5013920;28;20038;-70
2023/05/02 11:47:36;;;;;;;10.52;6.78;;;16.10;99.90;;;;;;4996808;28;20037;-70
2023/05/02 11:50:05;;;;;;;8.88;7.03;;;16.10;99.90;;;;;;4996690;28;20037;-69
2023/05/02 11:52:37;;;;;;;7.15;6.53;;;16.10;99.90;;;;;;5013319;28;20034;-70
2023/05/02 11:55:05;;;;;;;9.10;7.50;;;16.10;99.90;;;;;;4996855;28;20079;-69
2023/05/02 11:57:32;;;;;;;8.38;7.35;;;16.10;99.90;;;;;;4996528;28;20029;-71
2023/05/02 11:59:58;;;;;;;7.85;6.65;;;16.00;99.90;;;;;;4996739;28;20485;-70
2023/05/02 12:02:36;;;;;;;7.50;6.68;;;16.00;99.90;;;;;;4996958;28;20022;-70
2023/05/02 12:05:05;;;;;;;8.60;6.75;;;16.10;99.90;;;;;;5014054;28;20025;-70
2023/05/02 12:07:41;;;;;;;8.60;6.85;;;16.20;99.90;;;;;;4990507;28;20069;-71
2023/05/02 12:10:08;;;;;;;7.57;6.72;;;16.20;99.90;;;;;;5003666;28;20034;-71
2023/05/02 12:12:35;;;;;;;10.68;6.78;;;16.30;99.90;;;;;;5002690;28;20034;-71
2023/05/02 12:15:11;;;;;;;7.68;6.85;;;16.40;99.90;;;;;;5002168;28;20077;-71
2023/05/02 12:17:40;;;;;;;6.78;6.00;;;16.60;99.90;;;;;;4983447;28;20096;-71
2023/05/02 12:20:07;;;;;;;6.95;6.20;;;16.70;99.90;;;;;;5002121;28;20034;-71
2023/05/02 12:22:33;;;;;;;7.05;6.20;;;16.70;99.90;;;;;;5001204;28;20038;-71
2023/05/02 12:24:59;;;;;;;7.28;6.57;;;16.80;99.90;;;;;;5004880;28;20030;-71
2023/05/02 12:27:26;;;;;;;7.93;6.45;;;16.70;99.90;;;;;;5006671;28;20393;-70
2023/05/02 12:29:52;;;;;;;8.00;6.60;;;16.60;99.90;;;;;;5014005;28;20030;-70
2023/05/02 12:32:31;;;;;;;7.60;6.82;;;16.50;99.90;;;;;;5013687;28;20026;-70
2023/05/02 12:34:58;;;;;;;7.60;6.25;;;16.30;99.90;;;;;;4994888;28;20113;-70
2023/05/02 12:37:25;;;;;;;9.35;7.22;;;16.30;99.90;;;;;;4996236;28;20026;-70
2023/05/02 12:39:52;;;;;;;9.32;6.68;;;16.10;99.90;;;;;;5013780;28;20022;-70
2023/05/02 12:42:20;;;;;;;11.73;7.60;;;15.90;99.90;;;;;;4996125;28;20397;-70
2023/05/02 12:44:47;;;;;;;7.68;6.75;;;15.80;99.90;;;;;;4995893;28;20120;-70
2023/05/02 12:47:15;;;;;;;9.23;7.25;;;15.80;99.90;;;;;;5013552;28;20038;-70
2023/05/02 12:49:55;;;;;;;12.63;7.50;;;15.70;99.90;;;;;;5013906;28;20359;-70